METAR

METAR LDZA 162330Z 03004KT 350V080 9999 -RA FEW007 19/17 Q1017 TEMPO 05008KT RA BKN007 =
METAR LDSP 162330Z AUTO VRB02KT CAVOK 23/16 Q1011=
METAR LDDU 162330Z VRB03KT CAVOK 26/10 Q1012 =
METAR LDZD 162330Z VRB02KT CAVOK 20/16 Q1013 =
METAR LDPL 162330Z 07019KT CAVOK 24/14 Q1013 TEMPO 08018G28KT=
METAR LDOS 162330Z 26014KT 9999 SCT037 18/17 Q1016=
METAR LDRI 162330Z 07008KT CAVOK 25/13 Q1014=

TAF

TAF LDZA 162325Z 1700/1800 05008KT 9999 SCT045
                 TX27/1712Z TN16/1623Z
    PROB30 TEMPO 1700/1702 RA
           BECMG 1714/1716 05005KT
    PROB30 TEMPO 1714/1717 TSRA FEW030CB BKN040
    PROB30 TEMPO 1720/1722 -TSRA FEW030CB SCT040=
TAF LDSP 162325Z 1700/1800 34007KT CAVOK
                 TX30/1712Z TN22/1703Z
    PROB40 TEMPO 1700/1707 04012KT
    PROB40 TEMPO 1712/1716 11010KT
    PROB30 TEMPO 1712/1715 23008KT TS FEW050CB=
TAF LDDU 162325Z 1700/1800 08006KT CAVOK
                 TX28/1710Z TN23/1703Z
    PROB30 TEMPO 1712/1716 29010KT TS FEW045CB SCT050=
TAF LDZD 162325Z 1700/1800 06010KT CAVOK
                 TX31/1713Z TN18/1702Z
           TEMPO 1700/1702 VRB02KT
    PROB30 TEMPO 1714/1717 -TSRA FEW040CB SCT045
           BECMG 1717/1719 06006KT=
TAF LDPL 162325Z 1700/1800 07015KT CAVOK
                 TX28/1713Z TN21/1703Z
    PROB40 TEMPO 1700/1704 07018G30KT
           BECMG 1716/1718 07008KT=
TAF LDOS 162325Z 1700/1800 35008KT CAVOK
                 TX27/1714Z TN17/1701Z
           TEMPO 1700/1703 26015KT 4000 TSRA SCT020CB BKN040
    PROB30 TEMPO 1703/1706 BKN006
    PROB30 TEMPO 1709/1716 TSRA FEW030CB BKN035
    PROB40 TEMPO 1716/1721 32015KT TSRA=
TAF LDRI 162325Z 1700/1800 04015KT CAVOK
                 TX28/1712Z TN22/1703Z
           TEMPO 1700/1718 VRB10KT
    PROB40 TEMPO 1700/1704 05020G38KT
    PROB30 TEMPO 1704/1716 05018G30KT
           BECMG 1717/1719 04005KT=
TAF AMD LDLO 161912Z 1619/1712 CNL=

SIGMET

AIRMET

LDZO AIRMET 6 VALID 162001/162335 LDZA-
LDZO ZAGREB FIR MOD TURB FCST WI N4452 E01353 - N4540 E01432 - N4414
E01533 - N4408 E01429 - N4452 E01353 SFC/6000FT STNR NC=

Remark

Ukoliko se brzina i smjer vjetra ne mogu odrediti zbog privremenog kvara sustava/indikatora,
informacija o vjetru u METAR izvješću bit će prikazana kao "/////KT".

 

Disclaimer

 

In case of temporary system/sensor failure, wind speed and direction data will be represented as "/////KT" in METAR report.

 

         

      Politika MET podataka